createdAt,value
2022-11-03T00:02:00.917Z,7.32
2022-11-03T00:04:27.461Z,6.95
2022-11-03T00:06:55.248Z,5.90
2022-11-03T00:09:23.252Z,6.57
2022-11-03T00:11:50.983Z,6.53
2022-11-03T00:14:17.909Z,6.93
2022-11-03T00:16:44.576Z,6.15
2022-11-03T00:19:11.914Z,7.07
2022-11-03T00:21:38.669Z,6.97
2022-11-03T00:24:05.436Z,6.32
2022-11-03T00:26:34.406Z,6.93
2022-11-03T00:29:02.523Z,6.43
2022-11-03T00:31:31.192Z,5.75
2022-11-03T00:33:58.698Z,6.07
2022-11-03T00:36:30.874Z,6.85
2022-11-03T00:38:57.225Z,5.80
2022-11-03T00:41:24.766Z,6.47
2022-11-03T00:43:51.867Z,6.55
2022-11-03T00:46:20.462Z,6.80
2022-11-03T00:48:47.169Z,6.32
2022-11-03T00:51:18.883Z,5.30
2022-11-03T00:53:53.547Z,5.75
2022-11-03T00:56:22.481Z,5.80
2022-11-03T00:58:51.096Z,4.70
2022-11-03T01:01:20.021Z,5.07
2022-11-03T01:04:09.181Z,5.97
2022-11-03T01:07:01.918Z,4.97
2022-11-03T01:09:31.316Z,5.05
2022-11-03T01:12:12.389Z,5.32
2022-11-03T01:14:41.792Z,4.72
2022-11-03T01:17:10.638Z,4.90
2022-11-03T01:19:37.007Z,4.47
2022-11-03T01:22:06.523Z,4.10
2022-11-03T01:24:37.543Z,4.22
2022-11-03T01:27:03.877Z,3.90
2022-11-03T01:29:30.189Z,3.80
2022-11-03T01:31:56.487Z,3.90
2022-11-03T01:34:23.045Z,4.75
2022-11-03T01:36:49.686Z,4.70
2022-11-03T01:39:18.306Z,3.75
2022-11-03T01:41:48.144Z,4.03
2022-11-03T01:44:14.375Z,4.90
2022-11-03T01:46:59.339Z,4.13
2022-11-03T01:49:33.303Z,3.97
2022-11-03T01:52:06.598Z,4.57
2022-11-03T01:54:36.124Z,5.03
2022-11-03T01:57:07.223Z,4.30
2022-11-03T01:59:34.312Z,4.45
2022-11-03T02:02:00.842Z,4.78
2022-11-03T02:04:31.811Z,5.45
2022-11-03T02:07:09.150Z,4.72
2022-11-03T02:09:35.427Z,4.28
2022-11-03T02:12:07.986Z,4.43
2022-11-03T02:14:45.205Z,4.50
2022-11-03T02:17:13.871Z,4.55
2022-11-03T02:19:57.109Z,4.20
2022-11-03T02:22:48.093Z,4.38
2022-11-03T02:25:36.008Z,3.30
2022-11-03T02:28:04.485Z,4.45
2022-11-03T02:30:44.481Z,4.38
2022-11-03T02:33:25.082Z,3.63
2022-11-03T02:35:59.107Z,4.70
2022-11-03T02:38:28.865Z,4.25
2022-11-03T02:40:59.040Z,4.45
2022-11-03T02:43:25.919Z,4.03
2022-11-03T02:45:52.843Z,4.18
2022-11-03T02:48:19.321Z,4.32
2022-11-03T02:50:48.008Z,4.00
2022-11-03T02:53:15.798Z,4.13
2022-11-03T02:56:03.540Z,5.07
2022-11-03T02:58:48.829Z,4.95
2022-11-03T03:01:47.322Z,3.92
2022-11-03T03:04:46.746Z,4.00
2022-11-03T03:07:19.328Z,3.58
2022-11-03T03:10:16.441Z,4.47
2022-11-03T03:12:52.953Z,4.13
2022-11-03T03:15:23.546Z,3.90
2022-11-03T03:17:54.621Z,4.10
2022-11-03T03:20:27.709Z,4.30
2022-11-03T03:23:18.674Z,4.07
2022-11-03T03:26:07.895Z,4.22
2022-11-03T03:28:42.408Z,4.53
2022-11-03T03:31:11.869Z,4.05
2022-11-03T03:33:42.142Z,4.47
2022-11-03T03:36:16.617Z,4.32
2022-11-03T03:38:52.086Z,4.00
2022-11-03T03:41:21.971Z,4.28
2022-11-03T03:43:56.469Z,4.38
2022-11-03T03:46:26.628Z,4.35
2022-11-03T03:48:53.153Z,4.00
2022-11-03T03:51:24.111Z,4.22
2022-11-03T03:53:52.995Z,3.53
2022-11-03T03:56:33.903Z,3.92
2022-11-03T03:59:00.216Z,4.40
2022-11-03T04:01:26.653Z,3.97
2022-11-03T04:03:53.020Z,3.65
2022-11-03T04:06:19.332Z,3.90
2022-11-03T04:08:45.790Z,2.97
2022-11-03T04:11:30.995Z,4.20
2022-11-03T04:14:16.234Z,3.97
2022-11-03T04:17:01.298Z,3.85
2022-11-03T04:19:46.001Z,5.10
2022-11-03T04:22:18.227Z,4.97
2022-11-03T04:24:49.879Z,6.68
2022-11-03T04:27:27.070Z,6.90
2022-11-03T04:29:57.633Z,5.72
2022-11-03T04:32:24.090Z,5.35
2022-11-03T04:34:50.369Z,5.22
2022-11-03T04:37:17.146Z,4.13
2022-11-03T04:42:21.604Z,3.58
2022-11-03T04:44:49.182Z,3.63
2022-11-03T04:47:17.613Z,3.60
2022-11-03T04:49:46.707Z,4.50
2022-11-03T04:52:17.512Z,4.15
2022-11-03T04:54:44.854Z,3.60
2022-11-03T04:57:16.145Z,3.17
2022-11-03T04:59:47.874Z,3.60
2022-11-03T05:02:18.599Z,3.97
2022-11-03T05:04:44.948Z,3.70
2022-11-03T05:07:36.158Z,3.50
2022-11-03T05:10:06.398Z,3.67
2022-11-03T05:12:33.313Z,3.88
2022-11-03T05:14:59.723Z,3.95
2022-11-03T05:17:27.878Z,4.10
2022-11-03T05:19:57.828Z,4.15
2022-11-03T05:22:28.933Z,4.03
2022-11-03T05:24:58.509Z,3.88
2022-11-03T05:27:25.030Z,3.72
2022-11-03T05:29:57.801Z,3.72
2022-11-03T05:34:56.530Z,4.28
2022-11-03T05:37:27.958Z,3.58
2022-11-03T05:39:57.441Z,4.03
2022-11-03T05:42:23.688Z,3.55
2022-11-03T05:44:51.617Z,3.55
2022-11-03T05:47:24.425Z,3.90
2022-11-03T05:49:54.278Z,3.63
2022-11-03T05:52:26.589Z,4.05
2022-11-03T05:54:56.701Z,4.43
2022-11-03T05:57:23.261Z,3.70
2022-11-03T05:59:51.282Z,3.50
2022-11-03T06:02:39.383Z,3.90
2022-11-03T06:05:23.339Z,4.05
2022-11-03T06:07:52.745Z,3.75
2022-11-03T06:10:31.465Z,4.10
2022-11-03T06:13:18.925Z,3.75
2022-11-03T06:15:47.097Z,3.60
2022-11-03T06:18:20.117Z,3.50
2022-11-03T06:20:52.383Z,3.70
2022-11-03T06:23:20.601Z,3.45
2022-11-03T06:25:48.559Z,3.47
2022-11-03T06:28:19.891Z,3.15
2022-11-03T06:30:47.344Z,3.75
2022-11-03T06:33:19.023Z,5.18
2022-11-03T06:35:45.866Z,5.28
2022-11-03T06:38:21.208Z,5.63
2022-11-03T06:40:50.373Z,4.45
2022-11-03T06:43:20.507Z,4.40
2022-11-03T06:45:52.477Z,4.55
2022-11-03T06:48:25.454Z,4.80
2022-11-03T06:50:52.270Z,4.70
2022-11-03T06:53:29.403Z,5.13
2022-11-03T06:55:55.948Z,4.82
2022-11-03T06:58:32.365Z,4.50
2022-11-03T07:01:03.612Z,4.88
2022-11-03T07:03:33.341Z,4.30
2022-11-03T07:06:13.990Z,4.13
2022-11-03T07:08:46.604Z,5.90
2022-11-03T07:11:18.549Z,4.90
2022-11-03T07:13:46.127Z,4.25
2022-11-03T07:16:18.665Z,4.15
2022-11-03T07:18:47.477Z,4.05
2022-11-03T07:21:32.668Z,4.63
2022-11-03T07:24:00.493Z,5.05
2022-11-03T07:26:27.561Z,4.30
2022-11-03T07:28:54.714Z,3.65
2022-11-03T07:31:24.978Z,4.40
2022-11-03T07:33:56.715Z,4.40
2022-11-03T07:36:25.522Z,4.43
2022-11-03T07:38:54.652Z,4.90
2022-11-03T07:41:26.943Z,4.72
2022-11-03T07:43:59.374Z,4.13
2022-11-03T07:46:26.817Z,4.80
2022-11-03T07:48:56.558Z,4.50
2022-11-03T07:51:32.415Z,4.20
2022-11-03T07:54:18.499Z,4.05
2022-11-03T07:56:57.037Z,5.07
2022-11-03T07:59:28.692Z,4.53
2022-11-03T08:01:57.508Z,5.82
2022-11-03T08:04:45.945Z,5.03
2022-11-03T08:07:12.276Z,5.53
2022-11-03T08:09:38.573Z,5.30
2022-11-03T08:12:05.173Z,6.65
2022-11-03T08:14:31.893Z,6.30
2022-11-03T08:16:58.319Z,6.30
2022-11-03T08:19:24.642Z,6.57
2022-11-03T08:21:50.987Z,5.85
2022-11-03T08:24:17.351Z,6.85
2022-11-03T08:26:43.684Z,6.72
2022-11-03T08:29:10.070Z,6.57
2022-11-03T08:31:36.351Z,6.05
2022-11-03T08:34:02.764Z,6.20
2022-11-03T08:36:29.094Z,6.20
2022-11-03T08:38:55.431Z,6.60
2022-11-03T08:41:21.755Z,5.43
2022-11-03T08:43:48.077Z,8.02
2022-11-03T08:46:17.754Z,6.25
2022-11-03T08:48:45.941Z,7.65
2022-11-03T08:51:13.742Z,6.22
2022-11-03T08:53:42.410Z,6.40
2022-11-03T08:56:12.117Z,6.50
2022-11-03T08:58:39.752Z,7.05
2022-11-03T09:01:06.049Z,6.65
2022-11-03T09:03:32.434Z,7.18
2022-11-03T09:05:58.798Z,7.70
2022-11-03T09:11:11.355Z,7.53
2022-11-03T09:13:37.642Z,8.25
2022-11-03T09:16:04.068Z,7.53
2022-11-03T09:18:30.462Z,7.20
2022-11-03T09:20:56.838Z,7.70
2022-11-03T09:23:23.186Z,7.13
2022-11-03T09:25:49.505Z,8.00
2022-11-03T09:28:15.786Z,7.82
2022-11-03T09:30:42.079Z,7.45
2022-11-03T09:33:08.384Z,7.15
2022-11-03T09:35:34.678Z,7.85
2022-11-03T09:38:01.020Z,7.80
2022-11-03T09:40:27.431Z,7.65
2022-11-03T09:42:54.027Z,7.47
2022-11-03T09:45:20.423Z,8.20
2022-11-03T09:47:47.225Z,7.80
2022-11-03T09:50:17.081Z,8.90
2022-11-03T09:52:48.766Z,7.22
2022-11-03T09:55:21.734Z,8.02
2022-11-03T09:57:48.235Z,7.53
2022-11-03T10:00:20.872Z,8.13
2022-11-03T10:02:48.618Z,7.57
2022-11-03T10:05:20.303Z,7.65
2022-11-03T10:07:46.783Z,7.05
2022-11-03T10:10:18.198Z,5.55
2022-11-03T10:12:45.055Z,5.15
2022-11-03T10:15:16.624Z,5.45
2022-11-03T10:17:44.203Z,5.35
2022-11-03T10:20:12.996Z,4.90
2022-11-03T10:22:41.354Z,5.78
2022-11-03T10:25:42.946Z,5.15
2022-11-03T10:28:21.291Z,4.53
2022-11-03T10:31:11.849Z,4.60
2022-11-03T10:33:41.534Z,4.63
2022-11-03T10:36:16.980Z,4.47
2022-11-03T10:41:19.569Z,5.05
2022-11-03T10:44:11.599Z,6.45
2022-11-03T10:46:54.474Z,6.30
2022-11-03T10:49:21.472Z,5.15
2022-11-03T10:51:51.157Z,6.53
2022-11-03T10:54:19.493Z,5.38
2022-11-03T10:56:46.916Z,6.55
2022-11-03T10:59:18.944Z,5.80
2022-11-03T11:01:45.714Z,6.97
2022-11-03T11:04:16.101Z,8.40
2022-11-03T11:06:42.783Z,8.55
2022-11-03T11:09:11.837Z,7.22
2022-11-03T11:11:38.140Z,6.90
2022-11-03T11:14:36.785Z,6.00
2022-11-03T11:17:04.208Z,6.03
2022-11-03T11:19:30.751Z,5.07
2022-11-03T11:21:58.617Z,5.18
2022-11-03T11:24:43.269Z,6.35
2022-11-03T11:27:34.613Z,5.40
2022-11-03T11:30:04.980Z,5.80
2022-11-03T11:32:37.121Z,5.40
2022-11-03T11:35:03.568Z,5.68
2022-11-03T11:37:29.810Z,5.55
2022-11-03T11:39:56.093Z,4.93
2022-11-03T11:42:22.561Z,5.72
2022-11-03T11:44:50.629Z,11.55
2022-11-03T11:47:32.297Z,14.68
2022-11-03T11:50:10.859Z,13.40
2022-11-03T11:52:47.416Z,10.15
2022-11-03T11:55:24.424Z,8.82
2022-11-03T11:57:52.368Z,5.85
2022-11-03T12:00:20.200Z,5.43
2022-11-03T12:02:47.701Z,5.13
2022-11-03T12:05:22.824Z,5.43
2022-11-03T12:07:49.683Z,6.18
2022-11-03T12:10:27.398Z,6.55
2022-11-03T12:12:58.570Z,7.18
2022-11-03T12:15:57.151Z,6.57
2022-11-03T12:18:40.848Z,5.53
2022-11-03T12:21:14.666Z,4.63
2022-11-03T12:23:46.277Z,5.20
2022-11-03T12:26:38.494Z,5.38
2022-11-03T12:29:05.757Z,4.50
2022-11-03T12:31:34.427Z,4.78
2022-11-03T12:34:03.232Z,6.15
2022-11-03T12:36:29.504Z,6.88
2022-11-03T12:38:55.794Z,5.82
2022-11-03T12:41:22.125Z,6.80
2022-11-03T12:43:49.612Z,7.22
2022-11-03T12:46:18.141Z,5.82
2022-11-03T12:48:45.218Z,5.20
2022-11-03T12:51:19.117Z,7.03
2022-11-03T12:53:45.790Z,6.50
2022-11-03T12:56:13.878Z,6.60
2022-11-03T12:58:41.385Z,9.68
2022-11-03T13:01:08.492Z,10.00
2022-11-03T13:03:35.897Z,13.63
2022-11-03T13:06:04.529Z,11.32
2022-11-03T13:08:31.652Z,8.52
2022-11-03T13:10:58.075Z,9.13
2022-11-03T13:13:24.889Z,10.38
2022-11-03T13:15:52.956Z,7.57
2022-11-03T13:18:20.292Z,6.68
2022-11-03T13:20:46.806Z,8.15
2022-11-03T13:23:15.134Z,5.75
2022-11-03T13:25:43.060Z,4.80
2022-11-03T13:28:09.474Z,4.68
2022-11-03T13:30:36.437Z,4.97
2022-11-03T13:33:02.879Z,4.05
2022-11-03T13:35:29.233Z,4.47
2022-11-03T13:37:55.562Z,4.05
2022-11-03T13:43:08.483Z,4.80
2022-11-03T13:45:35.054Z,4.72
2022-11-03T13:50:50.703Z,4.07
2022-11-03T13:56:08.565Z,3.53
2022-11-03T14:01:23.196Z,3.80
2022-11-03T14:06:36.150Z,3.40
2022-11-03T14:09:03.117Z,3.38
2022-11-03T14:11:47.861Z,3.40
2022-11-03T14:14:14.164Z,3.67
2022-11-03T14:16:40.516Z,3.67
2022-11-03T14:19:06.982Z,3.17
2022-11-03T14:21:33.284Z,3.22
2022-11-03T14:23:59.654Z,2.67
2022-11-03T14:26:41.713Z,2.90
2022-11-03T14:29:09.870Z,3.15
2022-11-03T14:31:36.368Z,4.43
2022-11-03T14:34:02.660Z,3.92
2022-11-03T14:36:29.078Z,5.38
2022-11-03T14:38:55.511Z,4.18
2022-11-03T14:41:40.770Z,3.88
2022-11-03T14:44:07.141Z,4.88
2022-11-03T14:46:33.485Z,3.90
2022-11-03T14:49:01.668Z,4.00
2022-11-03T14:51:29.041Z,4.80
2022-11-03T14:53:56.828Z,5.00
2022-11-03T14:56:24.127Z,3.90
2022-11-03T14:58:50.642Z,4.25
2022-11-03T15:01:17.848Z,3.78
2022-11-03T15:03:44.382Z,4.10
2022-11-03T15:06:11.908Z,3.20
2022-11-03T15:08:38.798Z,3.72
2022-11-03T15:11:07.721Z,3.72
2022-11-03T15:13:39.551Z,3.33
2022-11-03T15:16:10.461Z,4.82
2022-11-03T15:18:36.779Z,4.70
2022-11-03T15:21:03.130Z,4.47
2022-11-03T15:26:16.046Z,4.88
2022-11-03T15:28:42.518Z,4.43
2022-11-03T15:31:08.967Z,3.10
2022-11-03T15:33:35.365Z,3.35
2022-11-03T15:36:01.796Z,2.90
2022-11-03T15:38:28.145Z,3.28
2022-11-03T15:41:14.445Z,4.20
2022-11-03T15:43:45.546Z,3.45
2022-11-03T15:46:13.760Z,3.65
2022-11-03T15:48:40.628Z,4.30
2022-11-03T15:51:06.978Z,3.65
2022-11-03T15:53:33.425Z,3.90
2022-11-03T15:55:59.993Z,4.03
2022-11-03T15:58:26.363Z,5.05
2022-11-03T16:00:52.735Z,4.15
2022-11-03T16:03:19.142Z,4.03
2022-11-03T16:05:45.473Z,3.63
2022-11-03T16:08:12.172Z,4.70
2022-11-03T16:10:39.907Z,4.68
2022-11-03T16:13:07.966Z,4.70
2022-11-03T16:15:34.238Z,4.82
2022-11-03T16:18:02.642Z,4.43
2022-11-03T16:20:30.706Z,4.38
2022-11-03T16:22:57.039Z,3.97
2022-11-03T16:25:24.110Z,4.20
2022-11-03T16:27:50.571Z,4.13
2022-11-03T16:30:17.131Z,4.25
2022-11-03T16:32:43.822Z,3.80
2022-11-03T16:35:10.172Z,3.75
2022-11-03T16:37:37.356Z,3.60
2022-11-03T16:40:04.940Z,7.03
2022-11-03T16:42:38.074Z,10.10
2022-11-03T16:45:15.237Z,8.00
2022-11-03T16:47:41.627Z,7.05
2022-11-03T16:50:08.217Z,8.38
2022-11-03T16:52:34.503Z,7.50
2022-11-03T16:55:00.774Z,8.55
2022-11-03T16:57:27.093Z,13.00
2022-11-03T16:59:53.376Z,11.50
2022-11-03T17:02:19.748Z,11.88
2022-11-03T17:04:46.115Z,11.75
2022-11-03T17:07:12.408Z,9.40
2022-11-03T17:09:38.709Z,9.25
2022-11-03T17:12:05.170Z,9.77
2022-11-03T17:14:31.492Z,9.48
2022-11-03T17:17:00.606Z,9.07
2022-11-03T17:19:27.003Z,9.05
2022-11-03T17:21:53.780Z,7.55
2022-11-03T17:24:20.263Z,5.80
2022-11-03T17:26:57.659Z,6.45
2022-11-03T17:29:32.694Z,5.30
2022-11-03T17:31:59.103Z,5.03
2022-11-03T17:34:25.709Z,4.70
2022-11-03T17:36:52.989Z,4.60
2022-11-03T17:39:24.266Z,5.03
2022-11-03T17:41:50.575Z,4.00
2022-11-03T17:44:17.794Z,4.60
2022-11-03T17:46:44.683Z,5.10
2022-11-03T17:49:10.966Z,4.10
2022-11-03T17:51:41.730Z,4.95
2022-11-03T17:54:08.587Z,5.43
2022-11-03T17:56:35.181Z,5.03
2022-11-03T17:59:02.012Z,4.70
2022-11-03T18:01:28.785Z,5.40
2022-11-03T18:03:55.241Z,5.18
2022-11-03T18:06:21.907Z,5.35
2022-11-03T18:08:48.801Z,6.45
2022-11-03T18:11:41.278Z,5.60
2022-11-03T18:14:07.655Z,5.28
2022-11-03T18:16:34.511Z,6.18
2022-11-03T18:19:00.834Z,6.28
2022-11-03T18:21:29.387Z,6.15
2022-11-03T18:23:55.942Z,6.40
2022-11-03T18:26:24.517Z,6.70
2022-11-03T18:28:50.950Z,6.35
2022-11-03T18:31:32.472Z,6.10
2022-11-03T18:34:02.864Z,6.20
2022-11-03T18:36:31.073Z,6.75
2022-11-03T18:38:57.467Z,6.07
2022-11-03T18:41:35.899Z,6.80
2022-11-03T18:44:06.471Z,6.93
2022-11-03T18:46:32.775Z,6.05
2022-11-03T18:48:59.077Z,7.25
2022-11-03T18:51:25.518Z,6.25
2022-11-03T18:53:51.818Z,5.85
2022-11-03T18:56:19.094Z,6.03
2022-11-03T18:58:45.594Z,7.82
2022-11-03T19:01:23.206Z,7.95
2022-11-03T19:03:56.372Z,7.80
2022-11-03T19:06:24.236Z,7.75
2022-11-03T19:08:58.300Z,7.70
2022-11-03T19:11:24.914Z,7.07
2022-11-03T19:13:51.351Z,6.13
2022-11-03T19:16:21.559Z,5.13
2022-11-03T19:18:48.531Z,5.95
2022-11-03T19:21:17.717Z,5.88
2022-11-03T19:23:47.859Z,6.53
2022-11-03T19:26:23.054Z,6.80
2022-11-03T19:28:54.011Z,6.65
2022-11-03T19:31:25.140Z,8.48
2022-11-03T19:33:54.275Z,6.85
2022-11-03T19:36:20.707Z,6.72
2022-11-03T19:38:47.425Z,8.95
2022-11-03T19:41:34.809Z,9.23
2022-11-03T19:44:02.532Z,9.02
2022-11-03T19:46:28.987Z,9.68
2022-11-03T19:48:56.352Z,11.25
2022-11-03T19:51:23.365Z,10.68
2022-11-03T19:53:49.947Z,9.00
2022-11-03T19:56:16.574Z,7.90
2022-11-03T19:58:42.919Z,7.03
2022-11-03T20:01:09.670Z,7.78
2022-11-03T20:03:36.953Z,6.40
2022-11-03T20:06:05.616Z,6.55
2022-11-03T20:08:33.605Z,6.00
2022-11-03T20:11:00.637Z,7.70
2022-11-03T20:13:32.101Z,7.10
2022-11-03T20:16:01.112Z,6.70
2022-11-03T20:18:28.579Z,6.78
2022-11-03T20:20:55.509Z,7.22
2022-11-03T20:23:28.529Z,6.55
2022-11-03T20:25:55.289Z,6.63
2022-11-03T20:28:25.034Z,5.90
2022-11-03T20:30:52.505Z,6.43
2022-11-03T20:33:20.440Z,6.38
2022-11-03T20:35:48.478Z,7.10
2022-11-03T20:38:20.744Z,6.50
2022-11-03T20:40:48.952Z,6.40
2022-11-03T20:43:32.383Z,6.63
2022-11-03T20:45:59.203Z,6.15
2022-11-03T20:48:25.517Z,6.53
2022-11-03T20:50:53.542Z,6.20
2022-11-03T20:53:24.843Z,6.05
2022-11-03T20:55:51.911Z,6.57
2022-11-03T20:58:18.862Z,5.97
2022-11-03T21:00:47.048Z,5.05
2022-11-03T21:03:37.974Z,5.47
2022-11-03T21:06:12.229Z,5.82
2022-11-03T21:08:39.005Z,5.65
2022-11-03T21:11:29.194Z,5.10
2022-11-03T21:14:19.572Z,5.28
2022-11-03T21:17:04.596Z,5.88
2022-11-03T21:19:50.956Z,5.23
2022-11-03T21:25:13.010Z,5.10
2022-11-03T21:27:42.124Z,5.50
2022-11-03T21:30:11.599Z,5.60
2022-11-03T21:32:37.888Z,5.55
2022-11-03T21:35:05.789Z,5.72
2022-11-03T21:37:32.098Z,5.65
2022-11-03T21:39:58.397Z,5.43
2022-11-03T21:42:43.198Z,5.93
2022-11-03T21:45:09.971Z,5.25
2022-11-03T21:47:36.267Z,6.40
2022-11-03T21:50:03.065Z,5.80
2022-11-03T21:52:32.206Z,6.38
2022-11-03T21:54:59.686Z,5.93
2022-11-03T21:57:26.538Z,6.47
2022-11-03T21:59:52.858Z,6.18
2022-11-03T22:02:19.276Z,6.63
2022-11-03T22:04:46.090Z,6.40
2022-11-03T22:07:12.469Z,7.00
2022-11-03T22:09:38.750Z,7.10
2022-11-03T22:12:06.523Z,6.88
2022-11-03T22:14:51.557Z,6.88
2022-11-03T22:17:17.883Z,7.83
2022-11-03T22:20:02.711Z,7.55
2022-11-03T22:22:47.977Z,7.15
2022-11-03T22:25:32.723Z,7.35
2022-11-03T22:27:59.018Z,7.25
2022-11-03T22:30:43.772Z,7.25
2022-11-03T22:33:10.266Z,7.50
2022-11-03T22:35:55.113Z,6.43
2022-11-03T22:38:41.402Z,7.25
2022-11-03T22:41:26.466Z,7.75
2022-11-03T22:44:11.220Z,6.13
2022-11-03T22:46:37.633Z,7.10
2022-11-03T22:49:03.918Z,7.88
2022-11-03T22:51:30.382Z,7.93
2022-11-03T22:54:11.658Z,7.15
2022-11-03T22:56:41.153Z,6.85
2022-11-03T22:59:08.202Z,6.90
2022-11-03T23:01:35.144Z,6.95
2022-11-03T23:04:01.697Z,7.18
2022-11-03T23:06:33.766Z,7.63
2022-11-03T23:09:00.657Z,7.15
2022-11-03T23:11:32.188Z,7.35
2022-11-03T23:14:00.715Z,6.57
2022-11-03T23:16:29.194Z,7.35
2022-11-03T23:19:15.625Z,7.88
2022-11-03T23:21:44.387Z,7.40
2022-11-03T23:24:29.672Z,7.57
2022-11-03T23:26:56.231Z,7.75
2022-11-03T23:29:22.551Z,7.55
2022-11-03T23:31:49.038Z,6.72
2022-11-03T23:34:15.346Z,7.35
2022-11-03T23:36:41.658Z,7.00
2022-11-03T23:39:12.338Z,7.15
2022-11-03T23:41:38.754Z,6.68
2022-11-03T23:44:05.341Z,6.50
2022-11-03T23:46:50.349Z,6.55
2022-11-03T23:49:16.771Z,5.03
2022-11-03T23:51:43.531Z,5.60
2022-11-03T23:54:12.113Z,5.00
2022-11-03T23:56:59.278Z,5.78
2022-11-03T23:59:26.713Z,3.80
